sensor_id;sensor_type;location;lat;lon;timestamp;temperature;humidity
65462;DHT22;53236;43.666;18.444;2023-02-01T00:00:25;-7.50;99.90
65462;DHT22;53236;43.666;18.444;2023-02-01T00:02:51;-7.40;99.90
65462;DHT22;53236;43.666;18.444;2023-02-01T00:05:17;-7.50;99.90
65462;DHT22;53236;43.666;18.444;2023-02-01T00:07:42;-7.50;99.90
65462;DHT22;53236;43.666;18.444;2023-02-01T00:10:08;-7.50;99.90
65462;DHT22;53236;43.666;18.444;2023-02-01T00:12:34;-7.50;99.90
65462;DHT22;53236;43.666;18.444;2023-02-01T00:15:00;-7.50;99.90
65462;DHT22;53236;43.666;18.444;2023-02-01T00:17:26;-7.50;99.90
65462;DHT22;53236;43.666;18.444;2023-02-01T00:19:52;-7.50;99.90
65462;DHT22;53236;43.666;18.444;2023-02-01T00:22:17;-7.50;99.90
65462;DHT22;53236;43.666;18.444;2023-02-01T00:24:43;-7.60;99.90
65462;DHT22;53236;43.666;18.444;2023-02-01T00:27:09;-7.60;99.90
65462;DHT22;53236;43.666;18.444;2023-02-01T00:29:35;-7.60;99.90
65462;DHT22;53236;43.666;18.444;2023-02-01T00:32:01;-7.60;99.90
65462;DHT22;53236;43.666;18.444;2023-02-01T00:34:26;-7.80;99.90
65462;DHT22;53236;43.666;18.444;2023-02-01T00:36:52;-8.00;99.90
65462;DHT22;53236;43.666;18.444;2023-02-01T00:39:18;-8.10;99.90
65462;DHT22;53236;43.666;18.444;2023-02-01T00:41:43;-8.10;99.90
65462;DHT22;53236;43.666;18.444;2023-02-01T00:44:09;-8.00;99.90
65462;DHT22;53236;43.666;18.444;2023-02-01T00:46:35;-8.10;99.90
65462;DHT22;53236;43.666;18.444;2023-02-01T00:49:02;-8.00;99.90
65462;DHT22;53236;43.666;18.444;2023-02-01T00:51:29;-8.00;99.90
65462;DHT22;53236;43.666;18.444;2023-02-01T00:53:55;-7.90;99.90
65462;DHT22;53236;43.666;18.444;2023-02-01T00:56:21;-7.90;99.90
65462;DHT22;53236;43.666;18.444;2023-02-01T00:58:47;-7.90;99.90
65462;DHT22;53236;43.666;18.444;2023-02-01T01:01:24;-7.90;99.90
65462;DHT22;53236;43.666;18.444;2023-02-01T01:03:52;-8.00;99.90
65462;DHT22;53236;43.666;18.444;2023-02-01T01:06:27;-8.00;99.90
65462;DHT22;53236;43.666;18.444;2023-02-01T01:08:55;-8.10;99.90
65462;DHT22;53236;43.666;18.444;2023-02-01T01:11:24;-8.10;99.90
65462;DHT22;53236;43.666;18.444;2023-02-01T01:13:51;-8.00;99.90
65462;DHT22;53236;43.666;18.444;2023-02-01T01:16:17;-8.00;99.90
65462;DHT22;53236;43.666;18.444;2023-02-01T01:18:44;-8.00;99.90
65462;DHT22;53236;43.666;18.444;2023-02-01T01:21:12;-8.10;99.90
65462;DHT22;53236;43.666;18.444;2023-02-01T01:23:38;-8.20;99.90
65462;DHT22;53236;43.666;18.444;2023-02-01T01:26:09;-8.30;99.90
65462;DHT22;53236;43.666;18.444;2023-02-01T01:28:35;-8.30;99.90
65462;DHT22;53236;43.666;18.444;2023-02-01T01:31:00;-8.30;99.90
65462;DHT22;53236;43.666;18.444;2023-02-01T01:33:26;-8.30;99.90
65462;DHT22;53236;43.666;18.444;2023-02-01T01:35:52;-8.20;99.90
65462;DHT22;53236;43.666;18.444;2023-02-01T01:38:17;-8.30;99.90
65462;DHT22;53236;43.666;18.444;2023-02-01T01:40:47;-8.30;99.90
65462;DHT22;53236;43.666;18.444;2023-02-01T01:43:16;-8.30;99.90
65462;DHT22;53236;43.666;18.444;2023-02-01T01:45:43;-8.40;99.90
65462;DHT22;53236;43.666;18.444;2023-02-01T01:48:27;-8.50;99.90
65462;DHT22;53236;43.666;18.444;2023-02-01T01:51:02;-8.60;99.90
65462;DHT22;53236;43.666;18.444;2023-02-01T01:53:51;-8.60;99.90
65462;DHT22;53236;43.666;18.444;2023-02-01T01:56:19;-8.50;99.90
65462;DHT22;53236;43.666;18.444;2023-02-01T01:58:45;-8.60;99.90
65462;DHT22;53236;43.666;18.444;2023-02-01T02:01:11;-8.60;99.90
65462;DHT22;53236;43.666;18.444;2023-02-01T02:03:42;-8.60;99.90
65462;DHT22;53236;43.666;18.444;2023-02-01T02:06:37;-8.80;99.90
65462;DHT22;53236;43.666;18.444;2023-02-01T02:09:04;-8.90;99.90
65462;DHT22;53236;43.666;18.444;2023-02-01T02:11:30;-8.80;99.90
65462;DHT22;53236;43.666;18.444;2023-02-01T02:13:56;-8.80;99.90
65462;DHT22;53236;43.666;18.444;2023-02-01T02:39:21;-9.20;99.90
65462;DHT22;53236;43.666;18.444;2023-02-01T02:44:47;-9.40;99.90
65462;DHT22;53236;43.666;18.444;2023-02-01T02:47:44;-9.60;99.90
65462;DHT22;53236;43.666;18.444;2023-02-01T02:50:28;-9.70;99.90
65462;DHT22;53236;43.666;18.444;2023-02-01T02:53:18;-9.70;99.90
65462;DHT22;53236;43.666;18.444;2023-02-01T02:56:06;-9.60;99.90
65462;DHT22;53236;43.666;18.444;2023-02-01T02:58:51;-9.80;99.90
65462;DHT22;53236;43.666;18.444;2023-02-01T03:01:37;-9.80;99.90
65462;DHT22;53236;43.666;18.444;2023-02-01T03:04:22;-9.80;99.90
65462;DHT22;53236;43.666;18.444;2023-02-01T03:06:49;-9.70;99.90
65462;DHT22;53236;43.666;18.444;2023-02-01T03:09:47;-9.70;99.90
65462;DHT22;53236;43.666;18.444;2023-02-01T03:12:14;-9.70;99.90
65462;DHT22;53236;43.666;18.444;2023-02-01T03:15:05;-9.80;99.90
65462;DHT22;53236;43.666;18.444;2023-02-01T03:17:38;-9.80;99.90
65462;DHT22;53236;43.666;18.444;2023-02-01T03:20:06;-9.90;99.90
65462;DHT22;53236;43.666;18.444;2023-02-01T03:22:33;-10.00;99.90
65462;DHT22;53236;43.666;18.444;2023-02-01T03:25:27;-10.00;99.90
65462;DHT22;53236;43.666;18.444;2023-02-01T03:27:57;-10.00;99.90
65462;DHT22;53236;43.666;18.444;2023-02-01T03:30:28;-10.00;99.90
65462;DHT22;53236;43.666;18.444;2023-02-01T03:32:57;-10.00;99.90
65462;DHT22;53236;43.666;18.444;2023-02-01T03:38:20;-9.80;99.90
65462;DHT22;53236;43.666;18.444;2023-02-01T03:43:27;-9.80;99.90
65462;DHT22;53236;43.666;18.444;2023-02-01T03:46:00;-9.90;99.90
65462;DHT22;53236;43.666;18.444;2023-02-01T03:48:28;-10.00;99.90
65462;DHT22;53236;43.666;18.444;2023-02-01T03:50:58;-10.00;99.90
65462;DHT22;53236;43.666;18.444;2023-02-01T03:53:26;-10.00;99.90
65462;DHT22;53236;43.666;18.444;2023-02-01T03:55:54;-9.90;99.90
65462;DHT22;53236;43.666;18.444;2023-02-01T03:58:21;-10.00;99.90
65462;DHT22;53236;43.666;18.444;2023-02-01T04:00:58;-9.90;99.90
65462;DHT22;53236;43.666;18.444;2023-02-01T04:03:25;-9.90;99.90
65462;DHT22;53236;43.666;18.444;2023-02-01T04:05:52;-9.90;99.90
65462;DHT22;53236;43.666;18.444;2023-02-01T04:08:19;-10.10;99.90
65462;DHT22;53236;43.666;18.444;2023-02-01T04:10:45;-10.20;99.90
65462;DHT22;53236;43.666;18.444;2023-02-01T04:13:11;-10.20;99.90
65462;DHT22;53236;43.666;18.444;2023-02-01T04:15:37;-10.30;99.90
65462;DHT22;53236;43.666;18.444;2023-02-01T04:18:03;-10.20;99.90
65462;DHT22;53236;43.666;18.444;2023-02-01T04:20:29;-10.20;99.90
65462;DHT22;53236;43.666;18.444;2023-02-01T04:22:55;-10.20;99.90
65462;DHT22;53236;43.666;18.444;2023-02-01T04:25:20;-10.30;99.90
65462;DHT22;53236;43.666;18.444;2023-02-01T04:27:46;-10.30;99.90
65462;DHT22;53236;43.666;18.444;2023-02-01T04:30:13;-10.30;99.90
65462;DHT22;53236;43.666;18.444;2023-02-01T04:32:39;-10.30;99.90
65462;DHT22;53236;43.666;18.444;2023-02-01T04:35:06;-10.30;99.90
65462;DHT22;53236;43.666;18.444;2023-02-01T04:37:32;-10.30;99.90
65462;DHT22;53236;43.666;18.444;2023-02-01T04:39:58;-10.30;99.90
65462;DHT22;53236;43.666;18.444;2023-02-01T04:42:23;-10.30;99.90
65462;DHT22;53236;43.666;18.444;2023-02-01T04:44:49;-10.20;99.90
65462;DHT22;53236;43.666;18.444;2023-02-01T04:47:15;-10.30;99.90
65462;DHT22;53236;43.666;18.444;2023-02-01T04:49:41;-10.50;99.90
65462;DHT22;53236;43.666;18.444;2023-02-01T04:52:07;-10.60;99.90
65462;DHT22;53236;43.666;18.444;2023-02-01T04:54:33;-10.70;99.90
65462;DHT22;53236;43.666;18.444;2023-02-01T04:56:59;-10.60;99.90
65462;DHT22;53236;43.666;18.444;2023-02-01T04:59:25;-10.70;99.90
65462;DHT22;53236;43.666;18.444;2023-02-01T05:01:51;-10.70;99.90
65462;DHT22;53236;43.666;18.444;2023-02-01T05:04:16;-10.80;99.90
65462;DHT22;53236;43.666;18.444;2023-02-01T05:06:44;-10.60;99.90
65462;DHT22;53236;43.666;18.444;2023-02-01T05:09:10;-10.70;99.90
65462;DHT22;53236;43.666;18.444;2023-02-01T05:11:35;-10.60;99.90
65462;DHT22;53236;43.666;18.444;2023-02-01T05:14:20;-10.70;99.90
65462;DHT22;53236;43.666;18.444;2023-02-01T05:16:46;-10.80;99.90
65462;DHT22;53236;43.666;18.444;2023-02-01T05:19:12;-10.80;99.90
65462;DHT22;53236;43.666;18.444;2023-02-01T05:21:37;-10.80;99.90
65462;DHT22;53236;43.666;18.444;2023-02-01T05:24:04;-10.90;99.90
65462;DHT22;53236;43.666;18.444;2023-02-01T05:26:42;-11.00;99.90
65462;DHT22;53236;43.666;18.444;2023-02-01T05:29:09;-11.10;99.90
65462;DHT22;53236;43.666;18.444;2023-02-01T05:31:35;-11.20;99.90
65462;DHT22;53236;43.666;18.444;2023-02-01T05:34:00;-11.20;99.90
65462;DHT22;53236;43.666;18.444;2023-02-01T05:36:26;-11.10;99.90
65462;DHT22;53236;43.666;18.444;2023-02-01T05:38:52;-11.10;99.90
65462;DHT22;53236;43.666;18.444;2023-02-01T05:41:18;-11.10;99.90
65462;DHT22;53236;43.666;18.444;2023-02-01T05:43:43;-11.10;99.90
65462;DHT22;53236;43.666;18.444;2023-02-01T05:46:09;-11.00;99.90
65462;DHT22;53236;43.666;18.444;2023-02-01T05:48:41;-11.10;99.90
65462;DHT22;53236;43.666;18.444;2023-02-01T05:51:09;-11.10;99.90
65462;DHT22;53236;43.666;18.444;2023-02-01T05:53:35;-11.10;99.90
65462;DHT22;53236;43.666;18.444;2023-02-01T05:56:01;-11.20;99.90
65462;DHT22;53236;43.666;18.444;2023-02-01T05:58:28;-11.20;99.90
65462;DHT22;53236;43.666;18.444;2023-02-01T06:00:54;-11.20;99.90
65462;DHT22;53236;43.666;18.444;2023-02-01T06:03:20;-11.20;99.90
65462;DHT22;53236;43.666;18.444;2023-02-01T06:05:46;-11.20;99.90
65462;DHT22;53236;43.666;18.444;2023-02-01T06:08:13;-11.20;99.90
65462;DHT22;53236;43.666;18.444;2023-02-01T06:10:39;-11.10;99.90
65462;DHT22;53236;43.666;18.444;2023-02-01T06:13:05;-11.00;99.90
65462;DHT22;53236;43.666;18.444;2023-02-01T06:15:30;-10.90;99.90
65462;DHT22;53236;43.666;18.444;2023-02-01T06:17:57;-10.80;99.90
65462;DHT22;53236;43.666;18.444;2023-02-01T06:20:23;-10.80;99.90
65462;DHT22;53236;43.666;18.444;2023-02-01T06:22:49;-10.70;99.90
65462;DHT22;53236;43.666;18.444;2023-02-01T06:25:15;-10.70;99.90
65462;DHT22;53236;43.666;18.444;2023-02-01T06:27:42;-10.50;99.90
65462;DHT22;53236;43.666;18.444;2023-02-01T06:30:08;-10.50;99.90
65462;DHT22;53236;43.666;18.444;2023-02-01T06:32:34;-10.50;99.90
65462;DHT22;53236;43.666;18.444;2023-02-01T06:34:59;-10.40;99.90
65462;DHT22;53236;43.666;18.444;2023-02-01T06:37:26;-10.50;99.90
65462;DHT22;53236;43.666;18.444;2023-02-01T06:39:52;-10.50;99.90
65462;DHT22;53236;43.666;18.444;2023-02-01T06:42:18;-10.40;99.90
65462;DHT22;53236;43.666;18.444;2023-02-01T06:44:44;-10.40;99.90
65462;DHT22;53236;43.666;18.444;2023-02-01T06:47:10;-10.30;99.90
65462;DHT22;53236;43.666;18.444;2023-02-01T06:49:35;-10.20;99.90
65462;DHT22;53236;43.666;18.444;2023-02-01T06:52:01;-9.90;99.90
65462;DHT22;53236;43.666;18.444;2023-02-01T06:54:27;-9.00;99.90
65462;DHT22;53236;43.666;18.444;2023-02-01T06:56:53;-7.90;99.90
65462;DHT22;53236;43.666;18.444;2023-02-01T06:59:19;-7.80;99.90
65462;DHT22;53236;43.666;18.444;2023-02-01T07:01:45;-8.00;99.90
65462;DHT22;53236;43.666;18.444;2023-02-01T07:04:11;-7.90;99.90
65462;DHT22;53236;43.666;18.444;2023-02-01T07:06:38;-7.70;99.90
65462;DHT22;53236;43.666;18.444;2023-02-01T07:09:05;-5.90;99.90
65462;DHT22;53236;43.666;18.444;2023-02-01T07:11:30;-4.40;84.30
65462;DHT22;53236;43.666;18.444;2023-02-01T07:13:57;-3.70;83.30
65462;DHT22;53236;43.666;18.444;2023-02-01T07:16:23;-3.60;77.70
65462;DHT22;53236;43.666;18.444;2023-02-01T07:18:51;-1.90;74.30
65462;DHT22;53236;43.666;18.444;2023-02-01T07:21:17;0.10;65.00
65462;DHT22;53236;43.666;18.444;2023-02-01T07:23:43;1.80;58.20
65462;DHT22;53236;43.666;18.444;2023-02-01T07:26:11;3.80;53.30
65462;DHT22;53236;43.666;18.444;2023-02-01T07:28:38;4.70;48.40
65462;DHT22;53236;43.666;18.444;2023-02-01T07:31:05;7.80;54.40
65462;DHT22;53236;43.666;18.444;2023-02-01T07:33:31;10.50;50.10
65462;DHT22;53236;43.666;18.444;2023-02-01T07:35:57;11.30;38.80
65462;DHT22;53236;43.666;18.444;2023-02-01T07:38:23;10.60;36.10
65462;DHT22;53236;43.666;18.444;2023-02-01T07:40:49;10.10;36.40
65462;DHT22;53236;43.666;18.444;2023-02-01T07:43:15;9.20;37.30
65462;DHT22;53236;43.666;18.444;2023-02-01T07:45:41;10.30;36.10
65462;DHT22;53236;43.666;18.444;2023-02-01T07:48:07;10.10;36.00
65462;DHT22;53236;43.666;18.444;2023-02-01T07:50:32;10.30;38.30
65462;DHT22;53236;43.666;18.444;2023-02-01T07:52:59;10.90;36.00
65462;DHT22;53236;43.666;18.444;2023-02-01T07:55:26;11.70;37.50
65462;DHT22;53236;43.666;18.444;2023-02-01T07:57:52;12.30;34.60
65462;DHT22;53236;43.666;18.444;2023-02-01T08:00:18;12.60;35.90
65462;DHT22;53236;43.666;18.444;2023-02-01T08:03:04;13.60;34.50
65462;DHT22;53236;43.666;18.444;2023-02-01T08:05:30;13.90;33.00
65462;DHT22;53236;43.666;18.444;2023-02-01T08:07:56;14.10;32.50
65462;DHT22;53236;43.666;18.444;2023-02-01T08:10:22;13.90;32.40
65462;DHT22;53236;43.666;18.444;2023-02-01T08:12:48;14.20;33.50
65462;DHT22;53236;43.666;18.444;2023-02-01T08:15:18;14.30;33.20
65462;DHT22;53236;43.666;18.444;2023-02-01T08:17:50;14.10;31.80
65462;DHT22;53236;43.666;18.444;2023-02-01T08:20:17;13.80;31.90
65462;DHT22;53236;43.666;18.444;2023-02-01T08:22:43;13.70;32.10
65462;DHT22;53236;43.666;18.444;2023-02-01T08:25:10;15.00;33.90
65462;DHT22;53236;43.666;18.444;2023-02-01T08:27:36;15.70;32.10
65462;DHT22;53236;43.666;18.444;2023-02-01T08:30:03;17.60;32.20
65462;DHT22;53236;43.666;18.444;2023-02-01T08:32:30;17.50;29.90
65462;DHT22;53236;43.666;18.444;2023-02-01T08:34:55;18.10;30.10
65462;DHT22;53236;43.666;18.444;2023-02-01T08:37:21;17.90;30.30
65462;DHT22;53236;43.666;18.444;2023-02-01T08:39:47;17.90;30.10
65462;DHT22;53236;43.666;18.444;2023-02-01T08:42:15;18.60;30.50
65462;DHT22;53236;43.666;18.444;2023-02-01T08:44:59;19.80;29.40
65462;DHT22;53236;43.666;18.444;2023-02-01T08:47:25;18.60;29.60
65462;DHT22;53236;43.666;18.444;2023-02-01T08:49:51;19.50;29.10
65462;DHT22;53236;43.666;18.444;2023-02-01T08:52:17;20.10;28.90
65462;DHT22;53236;43.666;18.444;2023-02-01T08:54:42;19.50;29.40
65462;DHT22;53236;43.666;18.444;2023-02-01T08:57:08;20.10;29.60
65462;DHT22;53236;43.666;18.444;2023-02-01T08:59:35;20.40;28.90
65462;DHT22;53236;43.666;18.444;2023-02-01T09:02:00;20.30;28.90
65462;DHT22;53236;43.666;18.444;2023-02-01T09:04:26;20.20;28.90
65462;DHT22;53236;43.666;18.444;2023-02-01T09:06:52;21.10;29.90
65462;DHT22;53236;43.666;18.444;2023-02-01T09:09:21;22.00;28.60
65462;DHT22;53236;43.666;18.444;2023-02-01T09:11:47;22.00;28.90
65462;DHT22;53236;43.666;18.444;2023-02-01T09:14:12;22.30;29.00
65462;DHT22;53236;43.666;18.444;2023-02-01T09:16:38;22.30;28.10
65462;DHT22;53236;43.666;18.444;2023-02-01T09:19:04;22.60;29.00
65462;DHT22;53236;43.666;18.444;2023-02-01T09:21:29;22.50;28.10
65462;DHT22;53236;43.666;18.444;2023-02-01T09:23:55;22.40;28.90
65462;DHT22;53236;43.666;18.444;2023-02-01T09:26:21;22.60;28.30
65462;DHT22;53236;43.666;18.444;2023-02-01T09:28:47;22.70;28.30
65462;DHT22;53236;43.666;18.444;2023-02-01T09:31:12;22.50;28.20
65462;DHT22;53236;43.666;18.444;2023-02-01T09:33:38;22.70;29.40
65462;DHT22;53236;43.666;18.444;2023-02-01T09:36:05;24.20;28.80
65462;DHT22;53236;43.666;18.444;2023-02-01T09:38:31;24.30;27.70
65462;DHT22;53236;43.666;18.444;2023-02-01T09:40:58;23.10;28.20
65462;DHT22;53236;43.666;18.444;2023-02-01T09:46:24;22.70;28.70
65462;DHT22;53236;43.666;18.444;2023-02-01T09:48:56;23.00;28.70
65462;DHT22;53236;43.666;18.444;2023-02-01T09:51:44;23.30;29.40
65462;DHT22;53236;43.666;18.444;2023-02-01T09:56:53;23.50;28.70
65462;DHT22;53236;43.666;18.444;2023-02-01T09:59:39;23.90;28.60
65462;DHT22;53236;43.666;18.444;2023-02-01T10:02:14;25.60;29.20
65462;DHT22;53236;43.666;18.444;2023-02-01T10:04:40;25.40;28.10
65462;DHT22;53236;43.666;18.444;2023-02-01T10:07:30;26.70;28.10
65462;DHT22;53236;43.666;18.444;2023-02-01T10:15:43;26.20;27.40
65462;DHT22;53236;43.666;18.444;2023-02-01T10:26:37;25.60;28.70
65462;DHT22;53236;43.666;18.444;2023-02-01T10:29:15;25.10;28.40
65462;DHT22;53236;43.666;18.444;2023-02-01T10:31:42;24.70;28.60
65462;DHT22;53236;43.666;18.444;2023-02-01T10:34:34;24.40;29.50
65462;DHT22;53236;43.666;18.444;2023-02-01T10:37:29;24.50;29.60
65462;DHT22;53236;43.666;18.444;2023-02-01T10:39:56;24.60;30.50
65462;DHT22;53236;43.666;18.444;2023-02-01T10:42:29;24.80;28.80
65462;DHT22;53236;43.666;18.444;2023-02-01T10:44:59;24.20;29.50
65462;DHT22;53236;43.666;18.444;2023-02-01T10:47:25;24.70;30.50
65462;DHT22;53236;43.666;18.444;2023-02-01T10:53:15;26.00;30.10
65462;DHT22;53236;43.666;18.444;2023-02-01T11:01:02;25.80;28.70
65462;DHT22;53236;43.666;18.444;2023-02-01T11:03:44;25.30;29.00
65462;DHT22;53236;43.666;18.444;2023-02-01T11:08:51;24.60;29.70
65462;DHT22;53236;43.666;18.444;2023-02-01T11:11:18;24.50;30.60
65462;DHT22;53236;43.666;18.444;2023-02-01T11:13:44;24.80;30.20
65462;DHT22;53236;43.666;18.444;2023-02-01T11:16:13;25.10;31.30
65462;DHT22;53236;43.666;18.444;2023-02-01T11:18:40;25.80;30.30
65462;DHT22;53236;43.666;18.444;2023-02-01T11:21:08;25.60;30.40
65462;DHT22;53236;43.666;18.444;2023-02-01T11:23:43;26.50;30.20
65462;DHT22;53236;43.666;18.444;2023-02-01T11:26:19;25.50;30.50
65462;DHT22;53236;43.666;18.444;2023-02-01T11:29:03;23.20;31.40
65462;DHT22;53236;43.666;18.444;2023-02-01T11:31:29;21.60;33.40
65462;DHT22;53236;43.666;18.444;2023-02-01T11:34:00;21.70;34.80
65462;DHT22;53236;43.666;18.444;2023-02-01T11:36:32;20.10;35.20
65462;DHT22;53236;43.666;18.444;2023-02-01T11:42:13;16.40;40.40
65462;DHT22;53236;43.666;18.444;2023-02-01T11:44:42;15.50;42.40
65462;DHT22;53236;43.666;18.444;2023-02-01T11:47:29;14.80;44.10
65462;DHT22;53236;43.666;18.444;2023-02-01T11:50:03;14.30;44.70
65462;DHT22;53236;43.666;18.444;2023-02-01T12:00:46;11.80;48.20
65462;DHT22;53236;43.666;18.444;2023-02-01T12:09:28;10.70;52.60
65462;DHT22;53236;43.666;18.444;2023-02-01T12:15:03;10.50;53.20
65462;DHT22;53236;43.666;18.444;2023-02-01T12:42:13;9.10;61.00
65462;DHT22;53236;43.666;18.444;2023-02-01T12:44:59;8.90;62.10
65462;DHT22;53236;43.666;18.444;2023-02-01T12:47:50;9.30;62.10
65462;DHT22;53236;43.666;18.444;2023-02-01T12:50:39;9.10;62.10
65462;DHT22;53236;43.666;18.444;2023-02-01T12:55:57;8.80;65.00
65462;DHT22;53236;43.666;18.444;2023-02-01T13:01:07;8.90;63.30
65462;DHT22;53236;43.666;18.444;2023-02-01T13:06:31;9.40;59.30
65462;DHT22;53236;43.666;18.444;2023-02-01T13:11:34;9.20;64.20
65462;DHT22;53236;43.666;18.444;2023-02-01T13:17:10;9.50;63.30
65462;DHT22;53236;43.666;18.444;2023-02-01T13:22:10;9.20;72.20
65462;DHT22;53236;43.666;18.444;2023-02-01T13:24:44;9.20;70.40
65462;DHT22;53236;43.666;18.444;2023-02-01T13:27:15;9.00;81.30
65462;DHT22;53236;43.666;18.444;2023-02-01T13:29:57;8.90;84.30
65462;DHT22;53236;43.666;18.444;2023-02-01T13:32:39;8.60;90.80
65462;DHT22;53236;43.666;18.444;2023-02-01T13:43:39;8.30;95.80
65462;DHT22;53236;43.666;18.444;2023-02-01T13:46:09;8.30;93.90
65462;DHT22;53236;43.666;18.444;2023-02-01T13:51:04;8.40;95.10
65462;DHT22;53236;43.666;18.444;2023-02-01T13:53:32;8.10;98.30
65462;DHT22;53236;43.666;18.444;2023-02-01T13:56:15;8.20;96.30
65462;DHT22;53236;43.666;18.444;2023-02-01T13:58:43;8.00;95.00
65462;DHT22;53236;43.666;18.444;2023-02-01T14:03:58;7.80;95.40
65462;DHT22;53236;43.666;18.444;2023-02-01T14:16:43;7.90;93.40
65462;DHT22;53236;43.666;18.444;2023-02-01T14:19:25;7.90;97.50
65462;DHT22;53236;43.666;18.444;2023-02-01T14:21:56;7.60;99.80
65462;DHT22;53236;43.666;18.444;2023-02-01T14:24:28;7.50;98.60
65462;DHT22;53236;43.666;18.444;2023-02-01T14:26:56;7.40;99.90
65462;DHT22;53236;43.666;18.444;2023-02-01T14:29:37;7.20;99.90
65462;DHT22;53236;43.666;18.444;2023-02-01T14:32:18;6.80;99.90
65462;DHT22;53236;43.666;18.444;2023-02-01T14:40:00;6.60;99.90
65462;DHT22;53236;43.666;18.444;2023-02-01T14:47:49;5.90;99.90
65462;DHT22;53236;43.666;18.444;2023-02-01T14:55:48;5.60;99.90
65462;DHT22;53236;43.666;18.444;2023-02-01T15:01:20;5.30;99.90
65462;DHT22;53236;43.666;18.444;2023-02-01T15:04:17;5.20;99.90
65462;DHT22;53236;43.666;18.444;2023-02-01T15:06:58;5.20;99.90
65462;DHT22;53236;43.666;18.444;2023-02-01T15:14:42;4.70;99.90
65462;DHT22;53236;43.666;18.444;2023-02-01T15:17:37;4.50;99.90
65462;DHT22;53236;43.666;18.444;2023-02-01T15:20:15;4.30;99.90
65462;DHT22;53236;43.666;18.444;2023-02-01T15:22:42;4.20;99.90
65462;DHT22;53236;43.666;18.444;2023-02-01T15:25:23;4.10;99.90
65462;DHT22;53236;43.666;18.444;2023-02-01T15:27:49;4.00;99.90
65462;DHT22;53236;43.666;18.444;2023-02-01T15:30:22;3.80;99.90
65462;DHT22;53236;43.666;18.444;2023-02-01T15:32:49;3.70;99.90
65462;DHT22;53236;43.666;18.444;2023-02-01T15:35:54;3.70;99.90
65462;DHT22;53236;43.666;18.444;2023-02-01T15:43:33;3.30;99.90
65462;DHT22;53236;43.666;18.444;2023-02-01T15:46:01;3.20;99.90
65462;DHT22;53236;43.666;18.444;2023-02-01T15:48:34;3.00;99.90
65462;DHT22;53236;43.666;18.444;2023-02-01T15:51:00;2.90;99.90
65462;DHT22;53236;43.666;18.444;2023-02-01T15:53:26;2.80;99.90
65462;DHT22;53236;43.666;18.444;2023-02-01T15:56:00;2.70;99.90
65462;DHT22;53236;43.666;18.444;2023-02-01T15:58:27;2.60;99.90
65462;DHT22;53236;43.666;18.444;2023-02-01T16:00:59;2.50;99.90
65462;DHT22;53236;43.666;18.444;2023-02-01T16:03:44;2.40;99.90
65462;DHT22;53236;43.666;18.444;2023-02-01T16:06:30;2.40;99.90
65462;DHT22;53236;43.666;18.444;2023-02-01T16:11:30;2.40;99.90
65462;DHT22;53236;43.666;18.444;2023-02-01T16:14:00;2.30;99.90
65462;DHT22;53236;43.666;18.444;2023-02-01T16:16:27;2.20;99.90
65462;DHT22;53236;43.666;18.444;2023-02-01T16:18:53;2.20;99.90
65462;DHT22;53236;43.666;18.444;2023-02-01T16:21:19;2.20;99.90
65462;DHT22;53236;43.666;18.444;2023-02-01T16:23:49;2.20;99.90
65462;DHT22;53236;43.666;18.444;2023-02-01T16:26:15;2.10;99.90
65462;DHT22;53236;43.666;18.444;2023-02-01T16:28:41;2.20;99.90
65462;DHT22;53236;43.666;18.444;2023-02-01T16:31:25;2.20;99.90
65462;DHT22;53236;43.666;18.444;2023-02-01T16:33:51;2.00;99.90
65462;DHT22;53236;43.666;18.444;2023-02-01T16:36:18;2.00;99.90
65462;DHT22;53236;43.666;18.444;2023-02-01T16:38:44;1.90;99.90
65462;DHT22;53236;43.666;18.444;2023-02-01T16:41:19;1.90;99.90
65462;DHT22;53236;43.666;18.444;2023-02-01T16:43:45;2.00;99.90
65462;DHT22;53236;43.666;18.444;2023-02-01T16:46:15;2.00;99.90
65462;DHT22;53236;43.666;18.444;2023-02-01T16:48:44;1.90;99.90
65462;DHT22;53236;43.666;18.444;2023-02-01T16:51:13;1.90;99.90
65462;DHT22;53236;43.666;18.444;2023-02-01T16:53:39;1.80;99.90
65462;DHT22;53236;43.666;18.444;2023-02-01T16:56:14;1.70;99.90
65462;DHT22;53236;43.666;18.444;2023-02-01T16:58:40;1.70;99.90
65462;DHT22;53236;43.666;18.444;2023-02-01T17:01:09;1.70;99.90
65462;DHT22;53236;43.666;18.444;2023-02-01T17:03:36;1.70;99.90
65462;DHT22;53236;43.666;18.444;2023-02-01T17:06:02;1.60;99.90
65462;DHT22;53236;43.666;18.444;2023-02-01T17:08:40;1.50;99.90
65462;DHT22;53236;43.666;18.444;2023-02-01T17:11:06;1.50;99.90
65462;DHT22;53236;43.666;18.444;2023-02-01T17:13:33;1.60;99.90
65462;DHT22;53236;43.666;18.444;2023-02-01T17:16:05;1.50;99.90
65462;DHT22;53236;43.666;18.444;2023-02-01T17:18:34;1.40;99.90
65462;DHT22;53236;43.666;18.444;2023-02-01T17:21:02;1.40;99.90
65462;DHT22;53236;43.666;18.444;2023-02-01T17:23:29;1.40;99.90
65462;DHT22;53236;43.666;18.444;2023-02-01T17:25:56;1.40;99.90
65462;DHT22;53236;43.666;18.444;2023-02-01T17:28:22;1.30;99.90
65462;DHT22;53236;43.666;18.444;2023-02-01T17:30:48;1.30;99.90
65462;DHT22;53236;43.666;18.444;2023-02-01T17:33:26;1.30;99.90
65462;DHT22;53236;43.666;18.444;2023-02-01T17:35:54;1.40;99.90
65462;DHT22;53236;43.666;18.444;2023-02-01T17:38:20;1.40;99.90
65462;DHT22;53236;43.666;18.444;2023-02-01T17:40:46;1.40;99.90
65462;DHT22;53236;43.666;18.444;2023-02-01T17:43:18;1.30;99.90
65462;DHT22;53236;43.666;18.444;2023-02-01T17:48:18;1.30;99.90
65462;DHT22;53236;43.666;18.444;2023-02-01T17:50:45;1.30;99.90
65462;DHT22;53236;43.666;18.444;2023-02-01T17:53:12;1.40;99.90
65462;DHT22;53236;43.666;18.444;2023-02-01T17:55:42;1.30;99.90
65462;DHT22;53236;43.666;18.444;2023-02-01T17:58:11;1.30;99.90
65462;DHT22;53236;43.666;18.444;2023-02-01T18:00:38;1.20;99.90
65462;DHT22;53236;43.666;18.444;2023-02-01T18:03:04;1.20;99.90
65462;DHT22;53236;43.666;18.444;2023-02-01T18:05:38;1.20;99.90
65462;DHT22;53236;43.666;18.444;2023-02-01T18:08:05;1.20;99.90
65462;DHT22;53236;43.666;18.444;2023-02-01T18:10:31;1.20;99.90
65462;DHT22;53236;43.666;18.444;2023-02-01T18:12:57;1.20;99.90
65462;DHT22;53236;43.666;18.444;2023-02-01T18:15:24;1.10;99.90
65462;DHT22;53236;43.666;18.444;2023-02-01T18:17:50;1.10;99.90
65462;DHT22;53236;43.666;18.444;2023-02-01T18:20:19;1.10;99.90
65462;DHT22;53236;43.666;18.444;2023-02-01T18:22:45;1.00;99.90
65462;DHT22;53236;43.666;18.444;2023-02-01T18:27:43;1.00;99.90
65462;DHT22;53236;43.666;18.444;2023-02-01T18:30:09;1.00;99.90
65462;DHT22;53236;43.666;18.444;2023-02-01T18:32:35;1.00;99.90
65462;DHT22;53236;43.666;18.444;2023-02-01T18:35:01;1.00;99.90
65462;DHT22;53236;43.666;18.444;2023-02-01T18:37:27;1.00;99.90